KLEW/LEW METAR and TAF weather

Enter ICAO airport designator
Station Type Date Time Source
KLEW METAR 2018/12/17 02:09 UTC NOAA

KLEW 170209Z AUTO 01004KT 10SM BKN022 00/M03 A2998 RMK AO2 FZRANO


Station Type Date Time Source
KLEW Decoded METAR 2018/12/17 02:09 UTC NOAA

Auburn-Lewiston, ME, United States (KLEW) 44-03N 070-17W
Dec 16, 2018 - 09:09 PM EST / 2018.12.17 0209 UTC
Wind: from the N (010 degrees) at 5 MPH (4 KT):0
Visibility: 10 mile(s):0
Sky conditions: mostly cloudy
Temperature: 32 F (0 C)
Windchill: 26 F (-3 C):1
Dew Point: 26 F (-3 C)
Relative Humidity: 80%
Pressure (altimeter): 29.98 in. Hg (1015 hPa)
ob: KLEW 170209Z AUTO 01004KT 10SM BKN022 00/M03 A2998 RMK AO2 FZRANO
cycle: 2

Station Type Date Time Source
KLEW TAF UTC NOAA

Error!


Example: see airport list